createdAt,value
2018-10-05T00:00:05.333Z,1006.07
2018-10-05T00:01:11.437Z,1006.10
2018-10-05T00:02:17.551Z,1006.10
2018-10-05T00:03:23.691Z,1006.10
2018-10-05T00:04:29.797Z,1006.15
2018-10-05T00:05:35.929Z,1006.07
2018-10-05T00:06:42.036Z,1006.04
2018-10-05T00:07:48.144Z,1006.08
2018-10-05T00:08:54.277Z,1006.06
2018-10-05T00:10:00.396Z,1006.03
2018-10-05T00:11:06.498Z,1006.04
2018-10-05T00:12:12.621Z,1006.08
2018-10-05T00:13:18.748Z,1006.03
2018-10-05T00:14:24.867Z,1006.02
2018-10-05T00:15:30.991Z,1006.04
2018-10-05T00:16:37.090Z,1006.04
2018-10-05T00:17:43.203Z,1005.98
2018-10-05T00:18:49.336Z,1006.01
2018-10-05T00:19:55.473Z,1006.05
2018-10-05T00:21:01.567Z,1006.04
2018-10-05T00:22:08.673Z,1005.98
2018-10-05T00:23:13.802Z,1005.99
2018-10-05T00:24:19.932Z,1005.97
2018-10-05T00:25:26.034Z,1005.99
2018-10-05T00:26:32.610Z,1005.97
2018-10-05T00:27:38.287Z,1005.92
2018-10-05T00:28:44.382Z,1005.89
2018-10-05T00:29:50.516Z,1005.93
2018-10-05T00:30:56.617Z,1005.90
2018-10-05T00:32:02.730Z,1005.89
2018-10-05T00:33:08.839Z,1005.90
2018-10-05T00:34:14.958Z,1005.86
2018-10-05T00:35:21.082Z,1005.89
2018-10-05T00:36:27.184Z,1005.90
2018-10-05T00:37:33.286Z,1005.84
2018-10-05T00:38:39.412Z,1005.86
2018-10-05T00:39:45.527Z,1005.82
2018-10-05T00:40:51.636Z,1005.84
2018-10-05T00:41:57.766Z,1005.80
2018-10-05T00:43:03.870Z,1005.79
2018-10-05T00:44:09.983Z,1005.73
2018-10-05T00:45:16.101Z,1005.70
2018-10-05T00:46:22.286Z,1005.71
2018-10-05T00:47:28.320Z,1005.69
2018-10-05T00:48:34.446Z,1005.69
2018-10-05T00:49:40.540Z,1005.67
2018-10-05T00:50:46.666Z,1005.66
2018-10-05T00:51:52.761Z,1005.68
2018-10-05T00:52:58.974Z,1005.68
2018-10-05T00:54:04.996Z,1005.62
2018-10-05T00:55:11.113Z,1005.67
2018-10-05T00:56:17.244Z,1005.60
2018-10-05T00:57:23.341Z,1005.59
2018-10-05T00:58:29.442Z,1005.58
2018-10-05T00:59:35.558Z,1005.56
2018-10-05T01:00:41.672Z,1005.55
2018-10-05T01:01:47.832Z,1005.51
2018-10-05T01:02:53.895Z,1005.56
2018-10-05T01:04:00.000Z,1005.55
2018-10-05T01:05:06.112Z,1005.59
2018-10-05T01:06:12.306Z,1005.62
2018-10-05T01:07:18.325Z,1005.60
2018-10-05T01:08:24.427Z,1005.54
2018-10-05T01:09:30.541Z,1005.55
2018-10-05T01:10:36.649Z,1005.49
2018-10-05T01:11:42.745Z,1005.48
2018-10-05T01:12:48.850Z,1005.50
2018-10-05T01:13:54.968Z,1005.48
2018-10-05T01:15:01.088Z,1005.51
2018-10-05T01:16:07.183Z,1005.48
2018-10-05T01:17:13.292Z,1005.47
2018-10-05T01:18:19.397Z,1005.44
2018-10-05T01:19:25.494Z,1005.47
2018-10-05T01:20:32.546Z,1005.38
2018-10-05T01:21:37.696Z,1005.40
2018-10-05T01:22:43.804Z,1005.40
2018-10-05T01:23:56.865Z,1005.38
2018-10-05T01:25:04.325Z,1005.38
2018-10-05T01:26:10.389Z,1005.40
2018-10-05T01:27:16.504Z,1005.44
2018-10-05T01:28:22.598Z,1005.39
2018-10-05T01:29:28.720Z,1005.40
2018-10-05T01:30:34.822Z,1005.36
2018-10-05T01:31:40.920Z,1005.31
2018-10-05T01:32:47.021Z,1005.37
2018-10-05T01:33:52.631Z,1005.38
2018-10-05T01:34:59.237Z,1005.38
2018-10-05T01:36:05.358Z,1005.35
2018-10-05T01:37:11.451Z,1005.36
2018-10-05T01:38:17.555Z,1005.34
2018-10-05T01:39:23.662Z,1005.31
2018-10-05T01:40:29.772Z,1005.25
2018-10-05T01:41:35.874Z,1005.29
2018-10-05T01:42:41.973Z,1005.28
2018-10-05T01:43:48.085Z,1005.31
2018-10-05T01:44:54.323Z,1005.28
2018-10-05T01:46:00.316Z,1005.29
2018-10-05T01:47:06.404Z,1005.26
2018-10-05T01:48:12.525Z,1005.25
2018-10-05T01:49:18.605Z,1005.29
2018-10-05T01:50:24.706Z,1005.27
2018-10-05T01:51:30.813Z,1005.25
2018-10-05T01:52:36.907Z,1005.31
2018-10-05T01:53:43.015Z,1005.32
2018-10-05T01:54:49.125Z,1005.35
2018-10-05T01:55:55.265Z,1005.34
2018-10-05T01:57:01.338Z,1005.33
2018-10-05T01:58:07.435Z,1005.28
2018-10-05T01:59:13.544Z,1005.28
2018-10-05T02:00:19.638Z,1005.26
2018-10-05T02:01:25.752Z,1005.26
2018-10-05T02:02:31.891Z,1005.25
2018-10-05T02:03:37.940Z,1005.25
2018-10-05T02:04:44.040Z,1005.22
2018-10-05T02:05:50.163Z,1005.28
2018-10-05T02:06:56.275Z,1005.24
2018-10-05T02:08:02.349Z,1005.28
2018-10-05T02:09:08.456Z,1005.22
2018-10-05T02:10:15.546Z,1005.24
2018-10-05T02:11:20.668Z,1005.21
2018-10-05T02:12:26.753Z,1005.18
2018-10-05T02:13:32.910Z,1005.17
2018-10-05T02:14:38.963Z,1005.09
2018-10-05T02:15:45.068Z,1005.11
2018-10-05T02:16:51.164Z,1005.09
2018-10-05T02:17:57.253Z,1005.14
2018-10-05T02:19:03.358Z,1005.14
2018-10-05T02:20:09.471Z,1005.15
2018-10-05T02:21:15.557Z,1005.07
2018-10-05T02:22:21.661Z,1005.04
2018-10-05T02:23:27.772Z,1005.02
2018-10-05T02:24:33.856Z,1005.03
2018-10-05T02:25:39.967Z,1005.03
2018-10-05T02:26:46.046Z,1005.02
2018-10-05T02:27:53.161Z,1005.00
2018-10-05T02:28:58.277Z,1005.03
2018-10-05T02:30:04.346Z,1005.00
2018-10-05T02:31:10.442Z,1005.00
2018-10-05T02:32:16.541Z,1004.99
2018-10-05T02:33:22.643Z,1004.97
2018-10-05T02:34:28.741Z,1005.02
2018-10-05T02:35:34.838Z,1005.01
2018-10-05T02:36:40.934Z,1005.01
2018-10-05T02:37:47.046Z,1005.03
2018-10-05T02:38:53.115Z,1005.00
2018-10-05T02:39:59.254Z,1005.01
2018-10-05T02:41:05.333Z,1005.00
2018-10-05T02:42:11.415Z,1004.95
2018-10-05T02:43:17.508Z,1004.95
2018-10-05T02:44:24.595Z,1004.91
2018-10-05T02:45:29.696Z,1004.88
2018-10-05T02:46:35.800Z,1004.87
2018-10-05T02:47:41.887Z,1004.88
2018-10-05T02:48:47.996Z,1004.90
2018-10-05T02:49:54.071Z,1004.90
2018-10-05T02:51:00.148Z,1004.89
2018-10-05T02:52:06.254Z,1004.88
2018-10-05T02:53:12.345Z,1004.92
2018-10-05T02:54:18.440Z,1004.93
2018-10-05T02:55:24.535Z,1004.91
2018-10-05T02:56:30.612Z,1004.89
2018-10-05T02:57:36.707Z,1004.88
2018-10-05T02:58:42.790Z,1004.87
2018-10-05T02:59:48.892Z,1004.90
2018-10-05T03:00:54.984Z,1004.90
2018-10-05T03:02:01.087Z,1004.87
2018-10-05T03:03:07.285Z,1004.87
2018-10-05T03:04:13.275Z,1004.82
2018-10-05T03:05:19.338Z,1004.81
2018-10-05T03:06:25.435Z,1004.75
2018-10-05T03:07:31.535Z,1004.73
2018-10-05T03:08:37.612Z,1004.74
2018-10-05T03:09:43.684Z,1004.72
2018-10-05T03:10:49.789Z,1004.72
2018-10-05T03:11:55.879Z,1004.73
2018-10-05T03:13:01.949Z,1004.74
2018-10-05T03:14:08.046Z,1004.70
2018-10-05T03:15:14.128Z,1004.69
2018-10-05T03:16:20.233Z,1004.67
2018-10-05T03:17:26.307Z,1004.64
2018-10-05T03:18:32.396Z,1004.64
2018-10-05T03:19:38.516Z,1004.63
2018-10-05T03:20:44.583Z,1004.60
2018-10-05T03:21:50.652Z,1004.62
2018-10-05T03:22:56.740Z,1004.64
2018-10-05T03:24:02.829Z,1004.61
2018-10-05T03:25:08.921Z,1004.60
2018-10-05T03:26:15.006Z,1004.58
2018-10-05T03:27:21.088Z,1004.60
2018-10-05T03:28:27.282Z,1004.58
2018-10-05T03:29:33.276Z,1004.57
2018-10-05T03:30:39.341Z,1004.58
2018-10-05T03:31:45.891Z,1004.58
2018-10-05T03:32:51.509Z,1004.56
2018-10-05T03:33:57.594Z,1004.54
2018-10-05T03:35:03.678Z,1004.54
2018-10-05T03:36:09.751Z,1004.51
2018-10-05T03:37:15.844Z,1004.51
2018-10-05T03:38:21.902Z,1004.46
2018-10-05T03:39:29.001Z,1004.50
2018-10-05T03:40:34.062Z,1004.48
2018-10-05T03:41:40.176Z,1004.50
2018-10-05T03:42:46.227Z,1004.45
2018-10-05T03:43:52.303Z,1004.44
2018-10-05T03:44:58.373Z,1004.46
2018-10-05T03:46:04.471Z,1004.46
2018-10-05T03:47:10.539Z,1004.49
2018-10-05T03:48:16.617Z,1004.51
2018-10-05T03:49:22.694Z,1004.49
2018-10-05T03:50:28.773Z,1004.49
2018-10-05T03:51:34.872Z,1004.49
2018-10-05T03:52:40.943Z,1004.46
2018-10-05T03:53:47.013Z,1004.48
2018-10-05T03:54:53.083Z,1004.48
2018-10-05T03:55:59.151Z,1004.48
2018-10-05T03:57:05.258Z,1004.50
2018-10-05T03:58:11.326Z,1004.48
2018-10-05T03:59:17.395Z,1004.46
2018-10-05T04:00:23.478Z,1004.52
2018-10-05T04:01:29.573Z,1004.47
2018-10-05T04:02:35.628Z,1004.46
2018-10-05T04:03:41.708Z,1004.46
2018-10-05T04:04:47.804Z,1004.46
2018-10-05T04:05:53.879Z,1004.45
2018-10-05T04:06:59.961Z,1004.47
2018-10-05T04:08:06.035Z,1004.48
2018-10-05T04:09:12.120Z,1004.49
2018-10-05T04:10:18.284Z,1004.47
2018-10-05T04:11:24.270Z,1004.53
2018-10-05T04:12:30.350Z,1004.42
2018-10-05T04:13:36.468Z,1004.46
2018-10-05T04:14:42.568Z,1004.49
2018-10-05T04:15:48.607Z,1004.48
2018-10-05T04:16:55.206Z,1004.52
2018-10-05T04:18:00.800Z,1004.54
2018-10-05T04:19:07.715Z,1004.53
2018-10-05T04:21:19.029Z,1004.50
2018-10-05T04:22:25.113Z,1004.46
2018-10-05T04:23:31.152Z,1004.47
2018-10-05T04:24:37.215Z,1004.41
2018-10-05T04:25:43.301Z,1004.48
2018-10-05T04:26:49.378Z,1004.47
2018-10-05T04:27:55.475Z,1004.45
2018-10-05T04:29:01.526Z,1004.43
2018-10-05T04:30:07.543Z,1004.42
2018-10-05T04:31:13.664Z,1004.46
2018-10-05T04:32:19.735Z,1004.47
2018-10-05T04:33:25.837Z,1004.43
2018-10-05T04:34:31.871Z,1004.40
2018-10-05T04:35:38.074Z,1004.40
2018-10-05T04:36:44.040Z,1004.37
2018-10-05T04:37:50.098Z,1004.38
2018-10-05T04:38:56.594Z,1004.36
2018-10-05T04:40:02.344Z,1004.36
2018-10-05T04:41:08.283Z,1004.38
2018-10-05T04:42:14.344Z,1004.37
2018-10-05T04:43:20.436Z,1004.38
2018-10-05T04:44:26.506Z,1004.42
2018-10-05T04:45:32.569Z,1004.40
2018-10-05T04:46:38.637Z,1004.38
2018-10-05T04:47:44.707Z,1004.42
2018-10-05T04:48:50.796Z,1004.43
2018-10-05T04:49:56.943Z,1004.42
2018-10-05T04:51:02.934Z,1004.39
2018-10-05T04:52:09.008Z,1004.39
2018-10-05T04:53:15.079Z,1004.30
2018-10-05T04:54:21.183Z,1004.29
2018-10-05T04:55:27.215Z,1004.26
2018-10-05T04:56:33.295Z,1004.24
2018-10-05T04:57:39.353Z,1004.23
2018-10-05T04:58:45.908Z,1004.20
2018-10-05T04:59:51.512Z,1004.20
2018-10-05T05:00:57.580Z,1004.22
2018-10-05T05:02:03.642Z,1004.19
2018-10-05T05:03:09.748Z,1004.20
2018-10-05T05:04:15.807Z,1004.21
2018-10-05T05:05:21.877Z,1004.22
2018-10-05T05:06:27.938Z,1004.21
2018-10-05T05:07:34.005Z,1004.23
2018-10-05T05:08:40.095Z,1004.18
2018-10-05T05:09:46.156Z,1004.17
2018-10-05T05:10:52.279Z,1004.19
2018-10-05T05:11:58.297Z,1004.21
2018-10-05T05:13:04.387Z,1004.14
2018-10-05T05:14:10.479Z,1004.16
2018-10-05T05:15:16.521Z,1004.16
2018-10-05T05:16:22.592Z,1004.13
2018-10-05T05:17:28.759Z,1004.12
2018-10-05T05:18:34.745Z,1004.12
2018-10-05T05:19:40.891Z,1004.10
2018-10-05T05:20:46.885Z,1004.13
2018-10-05T05:21:52.942Z,1004.11
2018-10-05T05:22:59.034Z,1004.12
2018-10-05T05:24:05.115Z,1004.06
2018-10-05T05:25:11.170Z,1004.05
2018-10-05T05:26:17.239Z,1004.08
2018-10-05T05:27:23.329Z,1004.09
2018-10-05T05:28:29.378Z,1004.09
2018-10-05T05:29:35.485Z,1004.03
2018-10-05T05:30:41.522Z,1004.08
2018-10-05T05:31:47.599Z,1004.11
2018-10-05T05:32:53.676Z,1004.17
2018-10-05T05:34:00.781Z,1004.20
2018-10-05T05:35:05.810Z,1004.25
2018-10-05T05:36:11.887Z,1004.29
2018-10-05T05:37:17.970Z,1004.29
2018-10-05T05:38:24.036Z,1004.29
2018-10-05T05:39:30.112Z,1004.32
2018-10-05T05:40:36.282Z,1004.33
2018-10-05T05:41:42.282Z,1004.33
2018-10-05T05:42:48.333Z,1004.30
2018-10-05T05:43:54.400Z,1004.37
2018-10-05T05:45:00.481Z,1004.35
2018-10-05T05:46:06.538Z,1004.36
2018-10-05T05:47:12.719Z,1004.39
2018-10-05T05:48:18.692Z,1004.32
2018-10-05T05:49:24.758Z,1004.34
2018-10-05T05:50:30.873Z,1004.37
2018-10-05T05:51:37.913Z,1004.41
2018-10-05T05:52:43.288Z,1004.39
2018-10-05T05:53:49.093Z,1004.43
2018-10-05T05:54:55.152Z,1004.39
2018-10-05T05:56:01.225Z,1004.39
2018-10-05T05:57:08.294Z,1004.42
2018-10-05T05:58:13.368Z,1004.37
2018-10-05T05:59:19.460Z,1004.34
2018-10-05T06:00:25.555Z,1004.31
2018-10-05T06:01:31.602Z,1004.36
2018-10-05T06:02:37.686Z,1004.32
2018-10-05T06:03:43.774Z,1004.32
2018-10-05T06:04:49.854Z,1004.36
2018-10-05T06:05:55.959Z,1004.32
2018-10-05T06:07:02.013Z,1004.28
2018-10-05T06:08:08.131Z,1004.30
2018-10-05T06:09:14.160Z,1004.32
2018-10-05T06:10:21.891Z,1004.24
2018-10-05T06:11:26.368Z,1004.29
2018-10-05T06:12:32.432Z,1004.27
2018-10-05T06:13:38.514Z,1004.28
2018-10-05T06:14:44.593Z,1004.32
2018-10-05T06:15:50.726Z,1004.32
2018-10-05T06:16:56.765Z,1004.33
2018-10-05T06:18:02.847Z,1004.33
2018-10-05T06:19:08.931Z,1004.33
2018-10-05T06:20:15.024Z,1004.33
2018-10-05T06:21:21.163Z,1004.31
2018-10-05T06:22:27.482Z,1004.35
2018-10-05T06:23:33.276Z,1004.35
2018-10-05T06:24:39.359Z,1004.32
2018-10-05T06:25:45.473Z,1004.31
2018-10-05T06:26:51.540Z,1004.29
2018-10-05T06:27:57.644Z,1004.25
2018-10-05T06:29:04.191Z,1004.30
2018-10-05T06:30:09.828Z,1004.25
2018-10-05T06:31:15.985Z,1004.28
2018-10-05T06:32:22.009Z,1004.28
2018-10-05T06:33:28.098Z,1004.25
2018-10-05T06:35:40.296Z,1004.29
2018-10-05T06:36:46.375Z,1004.29
2018-10-05T06:37:52.492Z,1004.31
2018-10-05T06:38:58.609Z,1004.26
2018-10-05T06:40:04.669Z,1004.33
2018-10-05T06:41:10.793Z,1004.33
2018-10-05T06:42:16.883Z,1004.35
2018-10-05T06:43:22.967Z,1004.35
2018-10-05T06:44:29.107Z,1004.38
2018-10-05T06:45:35.653Z,1004.38
2018-10-05T06:46:41.494Z,1004.41
2018-10-05T06:47:47.394Z,1004.45
2018-10-05T06:48:53.502Z,1004.41
2018-10-05T06:49:59.611Z,1004.46
2018-10-05T06:51:05.735Z,1004.48
2018-10-05T06:52:11.831Z,1004.50
2018-10-05T06:53:17.976Z,1004.50
2018-10-05T06:54:24.044Z,1004.52
2018-10-05T06:55:30.155Z,1004.50
2018-10-05T06:56:36.286Z,1004.50
2018-10-05T06:57:42.393Z,1004.46
2018-10-05T06:58:48.493Z,1004.50
2018-10-05T06:59:54.617Z,1004.52
2018-10-05T07:01:00.734Z,1004.52
2018-10-05T07:02:06.840Z,1004.56
2018-10-05T07:03:12.973Z,1004.52
2018-10-05T07:04:19.095Z,1004.47
2018-10-05T07:05:25.282Z,1004.51
2018-10-05T07:06:31.330Z,1004.48
2018-10-05T07:07:38.539Z,1004.56
2018-10-05T07:08:43.579Z,1004.52
2018-10-05T07:09:49.695Z,1004.50
2018-10-05T07:10:55.854Z,1004.58
2018-10-05T07:12:01.971Z,1004.61
2018-10-05T07:13:08.084Z,1004.61
2018-10-05T07:14:14.208Z,1004.59
2018-10-05T07:15:20.346Z,1004.55
2018-10-05T07:16:26.479Z,1004.53
2018-10-05T07:17:32.625Z,1004.54
2018-10-05T07:18:38.741Z,1004.53
2018-10-05T07:19:44.897Z,1004.53
2018-10-05T07:20:51.018Z,1004.52
2018-10-05T07:21:57.134Z,1004.50
2018-10-05T07:23:03.468Z,1004.51
2018-10-05T07:24:09.417Z,1004.52
2018-10-05T07:25:15.563Z,1004.52
2018-10-05T07:26:21.700Z,1004.51
2018-10-05T07:27:27.830Z,1004.51
2018-10-05T07:28:34.120Z,1004.51
2018-10-05T07:29:40.111Z,1004.50
2018-10-05T07:30:46.725Z,1004.51
2018-10-05T07:31:52.407Z,1004.50
2018-10-05T07:32:58.564Z,1004.49
2018-10-05T07:34:04.692Z,1004.45
2018-10-05T07:35:10.852Z,1004.45
2018-10-05T07:36:17.467Z,1004.45
2018-10-05T07:37:23.189Z,1004.43
2018-10-05T07:38:29.300Z,1004.45
2018-10-05T07:39:35.453Z,1004.45
2018-10-05T07:40:41.618Z,1004.44
2018-10-05T07:41:47.769Z,1004.44
2018-10-05T07:42:53.984Z,1004.46
2018-10-05T07:44:00.078Z,1004.47
2018-10-05T07:45:06.228Z,1004.46
2018-10-05T07:46:12.382Z,1004.43
2018-10-05T07:47:18.548Z,1004.42
2018-10-05T07:48:24.708Z,1004.43
2018-10-05T07:49:30.871Z,1004.44
2018-10-05T07:50:37.033Z,1004.44
2018-10-05T07:51:43.358Z,1004.51
2018-10-05T07:52:49.367Z,1004.47
2018-10-05T07:53:55.534Z,1004.45
2018-10-05T07:55:01.976Z,1004.39
2018-10-05T07:56:07.916Z,1004.40
2018-10-05T07:57:14.063Z,1004.39
2018-10-05T07:58:20.218Z,1004.38
2018-10-05T07:59:26.397Z,1004.37
2018-10-05T08:00:32.572Z,1004.40
2018-10-05T08:01:38.762Z,1004.35
2018-10-05T08:02:44.933Z,1004.34
2018-10-05T08:03:51.106Z,1004.34
2018-10-05T08:04:57.280Z,1004.32
2018-10-05T08:06:03.467Z,1004.29
2018-10-05T08:07:09.149Z,1004.26
2018-10-05T08:08:15.834Z,1004.22
2018-10-05T08:09:22.024Z,1004.23
2018-10-05T08:10:28.202Z,1004.25
2018-10-05T08:11:34.390Z,1004.23
2018-10-05T08:12:40.586Z,1004.20
2018-10-05T08:13:46.780Z,1004.20
2018-10-05T08:14:52.977Z,1004.19
2018-10-05T08:15:59.163Z,1004.18
2018-10-05T08:17:05.369Z,1004.13
2018-10-05T08:18:11.579Z,1004.12
2018-10-05T08:19:17.772Z,1004.12
2018-10-05T08:20:23.980Z,1004.11
2018-10-05T08:21:30.297Z,1004.10
2018-10-05T08:22:36.413Z,1004.10
2018-10-05T08:23:42.628Z,1004.10
2018-10-05T08:24:48.852Z,1004.09
2018-10-05T08:25:55.071Z,1004.07
2018-10-05T08:27:01.405Z,1004.04
2018-10-05T08:28:07.513Z,1004.03
2018-10-05T08:29:13.742Z,1004.01
2018-10-05T08:30:19.980Z,1003.96
2018-10-05T08:31:26.225Z,1003.99
2018-10-05T08:32:32.463Z,1004.00
2018-10-05T08:33:38.698Z,1003.94
2018-10-05T08:34:44.930Z,1003.97
2018-10-05T08:35:51.282Z,1003.90
2018-10-05T08:36:57.414Z,1003.90
2018-10-05T08:38:03.646Z,1003.89
2018-10-05T08:39:09.891Z,1003.89
2018-10-05T08:40:16.232Z,1003.87
2018-10-05T08:41:22.404Z,1003.88
2018-10-05T08:42:28.634Z,1003.86
2018-10-05T08:43:34.899Z,1003.88
2018-10-05T08:44:41.137Z,1003.88
2018-10-05T08:45:47.410Z,1003.85
2018-10-05T08:46:53.664Z,1003.85
2018-10-05T08:47:59.911Z,1003.82
2018-10-05T08:49:06.290Z,1003.85
2018-10-05T08:50:12.434Z,1003.83
2018-10-05T08:51:18.700Z,1003.81
2018-10-05T08:52:24.966Z,1003.76
2018-10-05T08:53:31.267Z,1003.76
2018-10-05T08:54:37.490Z,1003.76
2018-10-05T08:55:43.763Z,1003.76
2018-10-05T08:56:50.028Z,1003.74
2018-10-05T08:57:56.318Z,1003.78
2018-10-05T08:59:02.541Z,1003.73
2018-10-05T09:00:08.883Z,1003.71
2018-10-05T09:01:15.096Z,1003.68
2018-10-05T09:02:21.377Z,1003.65
2018-10-05T09:03:27.648Z,1003.64
2018-10-05T09:04:34.023Z,1003.60
2018-10-05T09:05:40.292Z,1003.64
2018-10-05T09:06:46.494Z,1003.62
2018-10-05T09:07:52.754Z,1003.60
2018-10-05T09:08:59.021Z,1003.58
2018-10-05T09:10:05.336Z,1003.58
2018-10-05T09:11:11.621Z,1003.58
2018-10-05T09:12:17.885Z,1003.57
2018-10-05T09:13:24.280Z,1003.57
2018-10-05T09:14:30.949Z,1003.56
2018-10-05T09:15:36.743Z,1003.54
2018-10-05T09:16:43.041Z,1003.52
2018-10-05T09:17:49.391Z,1003.49
2018-10-05T09:18:55.613Z,1003.47
2018-10-05T09:20:01.910Z,1003.41
2018-10-05T09:21:08.283Z,1003.35
2018-10-05T09:22:14.491Z,1003.37
2018-10-05T09:23:20.802Z,1003.32
2018-10-05T09:24:27.092Z,1003.25
2018-10-05T09:25:33.396Z,1003.24
2018-10-05T09:26:39.708Z,1003.18
2018-10-05T09:27:46.011Z,1003.15
2018-10-05T09:28:52.305Z,1003.11
2018-10-05T09:29:59.099Z,1003.09
2018-10-05T09:31:04.939Z,1003.06
2018-10-05T09:32:11.227Z,1003.01
2018-10-05T09:33:17.038Z,1003.00
2018-10-05T09:34:23.856Z,1002.97
2018-10-05T09:35:30.277Z,1002.92
2018-10-05T09:36:36.490Z,1002.89
2018-10-05T09:37:42.824Z,1002.91
2018-10-05T09:38:49.101Z,1002.91
2018-10-05T09:39:55.431Z,1002.86
2018-10-05T09:41:01.742Z,1002.85
2018-10-05T09:42:08.082Z,1002.82
2018-10-05T09:43:14.437Z,1002.80
2018-10-05T09:44:20.732Z,1002.80
2018-10-05T09:45:27.049Z,1002.79
2018-10-05T09:46:33.387Z,1002.76
2018-10-05T09:47:39.720Z,1002.73
2018-10-05T09:48:46.046Z,1002.72
2018-10-05T09:49:52.374Z,1002.71
2018-10-05T09:50:58.710Z,1002.72
2018-10-05T09:52:05.101Z,1002.74
2018-10-05T09:53:10.885Z,1002.67
2018-10-05T09:54:17.729Z,1002.66
2018-10-05T09:55:24.055Z,1002.64
2018-10-05T09:56:30.407Z,1002.67
2018-10-05T09:57:36.757Z,1002.70
2018-10-05T09:58:43.115Z,1002.66
2018-10-05T09:59:49.046Z,1002.64
2018-10-05T10:00:55.809Z,1002.66
2018-10-05T10:02:02.170Z,1002.64
2018-10-05T10:03:08.533Z,1002.71
2018-10-05T10:04:14.875Z,1002.68
2018-10-05T10:05:21.220Z,1002.66
2018-10-05T10:06:27.592Z,1002.66
2018-10-05T10:07:33.459Z,1002.64
2018-10-05T10:08:40.316Z,1002.64
2018-10-05T10:09:46.699Z,1002.61
2018-10-05T10:10:54.043Z,1002.61
2018-10-05T10:11:59.429Z,1002.60
2018-10-05T10:13:05.793Z,1002.55
2018-10-05T10:14:12.277Z,1002.55
2018-10-05T10:15:18.042Z,1002.47
2018-10-05T10:16:24.413Z,1002.43
2018-10-05T10:17:31.303Z,1002.45
2018-10-05T10:18:37.181Z,1002.43
2018-10-05T10:19:43.568Z,1002.41
2018-10-05T10:20:50.447Z,1002.41
2018-10-05T10:21:56.858Z,1002.42
2018-10-05T10:23:03.222Z,1002.41
2018-10-05T10:24:09.620Z,1002.40
2018-10-05T10:25:16.021Z,1002.39
2018-10-05T10:26:22.411Z,1002.43
2018-10-05T10:27:28.827Z,1002.41
2018-10-05T10:28:36.356Z,1002.33
2018-10-05T10:29:41.618Z,1002.31
2018-10-05T10:30:48.015Z,1002.29
2018-10-05T10:31:53.934Z,1002.30
2018-10-05T10:33:00.335Z,1002.26
2018-10-05T10:34:07.229Z,1002.23
2018-10-05T10:35:13.645Z,1002.28
2018-10-05T10:36:20.056Z,1002.18
2018-10-05T10:37:26.472Z,1002.15
2018-10-05T10:38:32.882Z,1002.16
2018-10-05T10:39:39.310Z,1002.17
2018-10-05T10:40:46.726Z,1002.10
2018-10-05T10:41:52.136Z,1002.09
2018-10-05T10:42:58.627Z,1002.11
2018-10-05T10:44:04.495Z,1002.08
2018-10-05T10:45:11.411Z,1002.06
2018-10-05T10:46:17.351Z,1002.08
2018-10-05T10:47:24.286Z,1002.03
2018-10-05T10:48:30.695Z,1002.01
2018-10-05T10:49:37.141Z,1002.00
2018-10-05T10:50:43.576Z,1002.01
2018-10-05T10:51:50.075Z,1002.00
2018-10-05T10:52:56.490Z,1001.92
2018-10-05T10:54:02.951Z,1001.90
2018-10-05T10:55:09.350Z,1001.90
2018-10-05T10:56:15.301Z,1001.87
2018-10-05T10:57:22.706Z,1001.87
2018-10-05T10:58:28.677Z,1001.85
2018-10-05T10:59:34.595Z,1001.87
2018-10-05T11:00:41.621Z,1001.78
2018-10-05T11:01:47.695Z,1001.80
2018-10-05T11:02:54.136Z,1001.80
2018-10-05T11:04:00.953Z,1001.72
2018-10-05T11:05:07.348Z,1001.65
2018-10-05T11:06:13.804Z,1001.63
2018-10-05T11:07:20.315Z,1001.59
2018-10-05T11:08:26.243Z,1001.56
2018-10-05T11:09:33.179Z,1001.58
2018-10-05T11:10:39.638Z,1001.50
2018-10-05T11:11:45.620Z,1001.46
2018-10-05T11:12:52.609Z,1001.47
2018-10-05T11:13:59.049Z,1001.44
2018-10-05T11:15:05.526Z,1001.45
2018-10-05T11:16:11.495Z,1001.41
2018-10-05T11:17:18.573Z,1001.35
2018-10-05T11:18:24.982Z,1001.37
2018-10-05T11:19:30.977Z,1001.36
2018-10-05T11:20:38.025Z,1001.34
2018-10-05T11:21:44.587Z,1001.35
2018-10-05T11:22:51.195Z,1001.28
2018-10-05T11:23:57.831Z,1001.26
2018-10-05T11:25:04.472Z,1001.22
2018-10-05T11:26:11.177Z,1001.21
2018-10-05T11:27:17.397Z,1001.19
2018-10-05T11:28:24.347Z,1001.18
2018-10-05T11:29:30.935Z,1001.12
2018-10-05T11:30:37.725Z,1001.15
2018-10-05T11:31:44.564Z,1001.07
2018-10-05T11:32:51.942Z,1001.06
2018-10-05T11:33:59.327Z,1001.06
2018-10-05T11:35:05.281Z,1001.03
2018-10-05T11:36:12.593Z,1001.05
2018-10-05T11:37:19.045Z,1001.02
2018-10-05T11:38:26.486Z,1000.98
2018-10-05T11:39:32.942Z,1000.95
2018-10-05T11:40:40.414Z,1000.92
2018-10-05T11:41:46.887Z,1000.92
2018-10-05T11:42:54.368Z,1000.88
2018-10-05T11:44:02.334Z,1000.90
2018-10-05T11:45:08.072Z,1000.90
2018-10-05T11:46:15.412Z,1000.83
2018-10-05T11:47:22.425Z,1000.83
2018-10-05T11:48:29.488Z,1000.82
2018-10-05T11:49:37.509Z,1000.77
2018-10-05T11:50:43.573Z,1000.76
2018-10-05T11:51:50.604Z,1000.73
2018-10-05T11:52:58.708Z,1000.69
2018-10-05T11:54:04.803Z,1000.65
2018-10-05T11:55:11.894Z,1000.62
2018-10-05T11:56:19.491Z,1000.61
2018-10-05T11:57:26.065Z,1000.64
2018-10-05T11:58:33.237Z,1000.49
2018-10-05T11:59:40.434Z,1000.49
2018-10-05T12:00:47.016Z,1000.48
2018-10-05T12:01:54.305Z,1000.44
2018-10-05T12:03:01.338Z,1000.43
2018-10-05T12:04:09.010Z,1000.37
2018-10-05T12:05:16.372Z,1000.44
2018-10-05T12:06:23.421Z,1000.40
2018-10-05T12:07:30.060Z,1000.38
2018-10-05T12:08:37.260Z,1000.33
2018-10-05T12:09:44.455Z,1000.36
2018-10-05T12:10:52.132Z,1000.31
2018-10-05T12:11:58.841Z,1000.26
2018-10-05T12:13:06.554Z,1000.24
2018-10-05T12:14:13.757Z,1000.24
2018-10-05T12:15:21.005Z,1000.23
2018-10-05T12:16:27.681Z,1000.21
2018-10-05T12:17:35.387Z,1000.23
2018-10-05T12:18:42.177Z,1000.17
2018-10-05T12:19:49.853Z,1000.13
2018-10-05T12:20:56.553Z,1000.13
2018-10-05T12:22:03.777Z,1000.06
2018-10-05T12:23:11.035Z,1000.00
2018-10-05T12:24:18.724Z,999.99
2018-10-05T12:25:25.955Z,999.97
2018-10-05T12:26:33.332Z,999.98
2018-10-05T12:27:40.466Z,999.94
2018-10-05T12:28:47.663Z,999.89
2018-10-05T12:29:54.405Z,999.89
2018-10-05T12:31:01.632Z,999.87
2018-10-05T12:32:09.380Z,999.87
2018-10-05T12:33:16.649Z,999.87
2018-10-05T12:34:23.876Z,999.81
2018-10-05T12:35:31.136Z,999.79
2018-10-05T12:36:38.413Z,999.78
2018-10-05T12:37:45.153Z,999.75
2018-10-05T12:38:52.406Z,999.74
2018-10-05T12:39:59.659Z,999.72
2018-10-05T12:41:08.407Z,999.71
2018-10-05T12:42:14.644Z,999.71
2018-10-05T12:43:21.924Z,999.68
2018-10-05T12:44:29.286Z,999.65
2018-10-05T12:45:36.421Z,999.66
2018-10-05T12:46:43.196Z,999.68
2018-10-05T12:47:50.963Z,999.68
2018-10-05T12:48:58.225Z,999.67
2018-10-05T12:50:06.014Z,999.66
2018-10-05T12:51:12.270Z,999.61
2018-10-05T12:52:19.546Z,999.55
2018-10-05T12:53:27.330Z,999.57
2018-10-05T12:54:34.611Z,999.50
2018-10-05T12:55:41.885Z,999.42
2018-10-05T12:56:48.684Z,999.39
2018-10-05T12:57:56.471Z,999.39
2018-10-05T12:59:03.766Z,999.37
2018-10-05T13:00:11.073Z,999.34
2018-10-05T13:01:17.900Z,999.35
2018-10-05T13:02:25.724Z,999.35
2018-10-05T13:03:33.070Z,999.31
2018-10-05T13:04:40.457Z,999.22
2018-10-05T13:05:47.321Z,999.22
2018-10-05T13:06:55.222Z,999.21
2018-10-05T13:08:02.616Z,999.17
2018-10-05T13:09:09.533Z,999.15
2018-10-05T13:10:16.953Z,999.13
2018-10-05T13:11:24.867Z,999.08
2018-10-05T13:12:31.776Z,999.06
2018-10-05T13:13:39.696Z,999.05
2018-10-05T13:14:47.107Z,999.03
2018-10-05T13:15:54.518Z,999.04
2018-10-05T13:17:01.935Z,999.01
2018-10-05T13:18:08.845Z,999.02
2018-10-05T13:19:16.762Z,998.98
2018-10-05T13:20:24.288Z,998.96
2018-10-05T13:21:31.152Z,998.97
2018-10-05T13:22:39.066Z,998.99
2018-10-05T13:23:46.007Z,998.99
2018-10-05T13:24:54.431Z,998.94
2018-10-05T13:26:01.384Z,998.92